Terminal Aerodrome Forecast
Issued by NWS

Home | Current Version | Previous Version | Text Only | Print | Product List | Glossary On
Versions: 1 2 3 4 5 6 7 8 9 10 11 12 13 14
000
FTUS45 KCYS 191347 AAB
TAFLAR
TAF AMD
KLAR 191347Z 1914/2012 24020G30KT P6SM BKN200
     FM191700 25025G35KT P6SM BKN150
     FM200100 22013KT P6SM BKN150=

USA.gov is the U.S. government's official web portal to all federal, state and local government web resources and services.